sensor_id;sensor_type;location;lat;lon;timestamp;P1;durP1;ratioP1;P2;durP2;ratioP2
13580;SDS011;6861;46.170;7.222;2023-07-29T00:02:16;4.13;;;3.35;;
13580;SDS011;6861;46.170;7.222;2023-07-29T00:04:44;4.82;;;3.33;;
13580;SDS011;6861;46.170;7.222;2023-07-29T00:07:12;4.30;;;3.50;;
13580;SDS011;6861;46.170;7.222;2023-07-29T00:09:42;3.80;;;3.25;;
13580;SDS011;6861;46.170;7.222;2023-07-29T00:12:10;8.82;;;3.03;;
13580;SDS011;6861;46.170;7.222;2023-07-29T00:14:38;3.75;;;3.30;;
13580;SDS011;6861;46.170;7.222;2023-07-29T00:17:07;4.38;;;3.33;;
13580;SDS011;6861;46.170;7.222;2023-07-29T00:19:35;3.92;;;3.33;;
13580;SDS011;6861;46.170;7.222;2023-07-29T00:22:03;7.15;;;3.50;;
13580;SDS011;6861;46.170;7.222;2023-07-29T00:24:32;3.67;;;3.08;;
13580;SDS011;6861;46.170;7.222;2023-07-29T00:27:02;5.43;;;3.10;;
13580;SDS011;6861;46.170;7.222;2023-07-29T00:29:30;3.70;;;3.00;;
13580;SDS011;6861;46.170;7.222;2023-07-29T00:31:58;4.32;;;3.30;;
13580;SDS011;6861;46.170;7.222;2023-07-29T00:34:26;4.10;;;3.00;;
13580;SDS011;6861;46.170;7.222;2023-07-29T00:36:55;4.80;;;3.58;;
13580;SDS011;6861;46.170;7.222;2023-07-29T00:39:24;4.80;;;3.08;;
13580;SDS011;6861;46.170;7.222;2023-07-29T00:41:52;3.95;;;3.33;;
13580;SDS011;6861;46.170;7.222;2023-07-29T00:44:21;5.40;;;3.58;;
13580;SDS011;6861;46.170;7.222;2023-07-29T00:46:50;4.05;;;3.10;;
13580;SDS011;6861;46.170;7.222;2023-07-29T00:49:19;4.80;;;3.10;;
13580;SDS011;6861;46.170;7.222;2023-07-29T00:51:48;4.97;;;3.42;;
13580;SDS011;6861;46.170;7.222;2023-07-29T00:54:17;4.43;;;3.33;;
13580;SDS011;6861;46.170;7.222;2023-07-29T00:56:45;3.45;;;3.15;;
13580;SDS011;6861;46.170;7.222;2023-07-29T00:59:14;4.65;;;3.60;;
13580;SDS011;6861;46.170;7.222;2023-07-29T01:01:44;5.82;;;4.00;;
13580;SDS011;6861;46.170;7.222;2023-07-29T01:04:12;4.32;;;3.53;;
13580;SDS011;6861;46.170;7.222;2023-07-29T01:06:41;5.40;;;3.55;;
13580;SDS011;6861;46.170;7.222;2023-07-29T01:09:20;4.43;;;3.85;;
13580;SDS011;6861;46.170;7.222;2023-07-29T01:11:57;4.22;;;3.50;;
13580;SDS011;6861;46.170;7.222;2023-07-29T01:14:34;5.25;;;3.45;;
13580;SDS011;6861;46.170;7.222;2023-07-29T01:17:08;5.35;;;3.33;;
13580;SDS011;6861;46.170;7.222;2023-07-29T01:19:48;4.25;;;3.33;;
13580;SDS011;6861;46.170;7.222;2023-07-29T01:22:29;4.65;;;3.50;;
13580;SDS011;6861;46.170;7.222;2023-07-29T01:25:00;6.72;;;4.28;;
13580;SDS011;6861;46.170;7.222;2023-07-29T01:27:29;5.18;;;3.78;;
13580;SDS011;6861;46.170;7.222;2023-07-29T01:29:57;4.78;;;3.42;;
13580;SDS011;6861;46.170;7.222;2023-07-29T01:32:28;4.90;;;4.00;;
13580;SDS011;6861;46.170;7.222;2023-07-29T01:35:03;4.85;;;3.70;;
13580;SDS011;6861;46.170;7.222;2023-07-29T01:37:37;5.20;;;3.90;;
13580;SDS011;6861;46.170;7.222;2023-07-29T01:40:08;5.13;;;3.55;;
13580;SDS011;6861;46.170;7.222;2023-07-29T01:42:37;5.32;;;3.53;;
13580;SDS011;6861;46.170;7.222;2023-07-29T01:45:06;5.10;;;3.80;;
13580;SDS011;6861;46.170;7.222;2023-07-29T01:47:34;4.28;;;3.33;;
13580;SDS011;6861;46.170;7.222;2023-07-29T01:50:07;4.45;;;3.42;;
13580;SDS011;6861;46.170;7.222;2023-07-29T01:52:36;5.38;;;3.70;;
13580;SDS011;6861;46.170;7.222;2023-07-29T01:55:04;4.68;;;3.75;;
13580;SDS011;6861;46.170;7.222;2023-07-29T01:57:34;6.13;;;3.67;;
13580;SDS011;6861;46.170;7.222;2023-07-29T02:00:03;5.07;;;3.45;;
13580;SDS011;6861;46.170;7.222;2023-07-29T02:02:32;4.43;;;3.65;;
13580;SDS011;6861;46.170;7.222;2023-07-29T02:05:00;4.53;;;3.85;;
13580;SDS011;6861;46.170;7.222;2023-07-29T02:07:28;4.53;;;3.55;;
13580;SDS011;6861;46.170;7.222;2023-07-29T02:09:57;4.32;;;3.40;;
13580;SDS011;6861;46.170;7.222;2023-07-29T02:12:25;4.80;;;4.00;;
13580;SDS011;6861;46.170;7.222;2023-07-29T02:14:54;4.53;;;3.60;;
13580;SDS011;6861;46.170;7.222;2023-07-29T02:17:22;5.20;;;3.50;;
13580;SDS011;6861;46.170;7.222;2023-07-29T02:19:52;6.15;;;3.75;;
13580;SDS011;6861;46.170;7.222;2023-07-29T02:22:20;4.43;;;3.45;;
13580;SDS011;6861;46.170;7.222;2023-07-29T02:24:49;7.25;;;3.92;;
13580;SDS011;6861;46.170;7.222;2023-07-29T02:27:17;4.35;;;3.92;;
13580;SDS011;6861;46.170;7.222;2023-07-29T02:29:45;4.57;;;3.25;;
13580;SDS011;6861;46.170;7.222;2023-07-29T02:32:15;5.18;;;3.30;;
13580;SDS011;6861;46.170;7.222;2023-07-29T02:34:43;5.38;;;3.47;;
13580;SDS011;6861;46.170;7.222;2023-07-29T02:37:11;5.25;;;3.53;;
13580;SDS011;6861;46.170;7.222;2023-07-29T02:39:39;4.60;;;3.50;;
13580;SDS011;6861;46.170;7.222;2023-07-29T02:42:07;5.03;;;3.70;;
13580;SDS011;6861;46.170;7.222;2023-07-29T02:44:36;5.65;;;3.80;;
13580;SDS011;6861;46.170;7.222;2023-07-29T02:47:04;3.90;;;3.45;;
13580;SDS011;6861;46.170;7.222;2023-07-29T02:49:33;4.53;;;3.63;;
13580;SDS011;6861;46.170;7.222;2023-07-29T02:52:02;6.75;;;3.97;;
13580;SDS011;6861;46.170;7.222;2023-07-29T02:54:30;6.60;;;4.10;;
13580;SDS011;6861;46.170;7.222;2023-07-29T02:56:58;6.45;;;3.85;;
13580;SDS011;6861;46.170;7.222;2023-07-29T02:59:27;7.93;;;3.85;;
13580;SDS011;6861;46.170;7.222;2023-07-29T03:01:55;5.38;;;4.10;;
13580;SDS011;6861;46.170;7.222;2023-07-29T03:04:23;4.63;;;4.00;;
13580;SDS011;6861;46.170;7.222;2023-07-29T03:06:53;5.18;;;3.75;;
13580;SDS011;6861;46.170;7.222;2023-07-29T03:09:21;4.53;;;3.30;;
13580;SDS011;6861;46.170;7.222;2023-07-29T03:11:49;5.85;;;3.90;;
13580;SDS011;6861;46.170;7.222;2023-07-29T03:14:19;5.70;;;3.65;;
13580;SDS011;6861;46.170;7.222;2023-07-29T03:16:47;7.03;;;3.90;;
13580;SDS011;6861;46.170;7.222;2023-07-29T03:19:15;4.97;;;3.42;;
13580;SDS011;6861;46.170;7.222;2023-07-29T03:21:43;5.03;;;3.47;;
13580;SDS011;6861;46.170;7.222;2023-07-29T03:24:13;5.95;;;3.60;;
13580;SDS011;6861;46.170;7.222;2023-07-29T03:26:41;4.60;;;3.70;;
13580;SDS011;6861;46.170;7.222;2023-07-29T03:29:12;7.80;;;3.80;;
13580;SDS011;6861;46.170;7.222;2023-07-29T03:31:40;8.30;;;4.43;;
13580;SDS011;6861;46.170;7.222;2023-07-29T03:34:08;7.78;;;3.92;;
13580;SDS011;6861;46.170;7.222;2023-07-29T03:36:37;6.05;;;3.75;;
13580;SDS011;6861;46.170;7.222;2023-07-29T03:39:05;5.05;;;3.70;;
13580;SDS011;6861;46.170;7.222;2023-07-29T03:41:35;3.97;;;3.50;;
13580;SDS011;6861;46.170;7.222;2023-07-29T03:44:03;5.03;;;3.67;;
13580;SDS011;6861;46.170;7.222;2023-07-29T03:46:32;5.22;;;4.00;;
13580;SDS011;6861;46.170;7.222;2023-07-29T03:49:00;6.57;;;3.75;;
13580;SDS011;6861;46.170;7.222;2023-07-29T03:51:29;5.93;;;3.78;;
13580;SDS011;6861;46.170;7.222;2023-07-29T03:53:57;4.93;;;3.90;;
13580;SDS011;6861;46.170;7.222;2023-07-29T03:56:26;5.18;;;3.80;;
13580;SDS011;6861;46.170;7.222;2023-07-29T03:58:57;4.50;;;3.60;;
13580;SDS011;6861;46.170;7.222;2023-07-29T04:01:30;5.18;;;3.78;;
13580;SDS011;6861;46.170;7.222;2023-07-29T04:03:58;4.30;;;3.50;;
13580;SDS011;6861;46.170;7.222;2023-07-29T04:06:27;5.40;;;3.88;;
13580;SDS011;6861;46.170;7.222;2023-07-29T04:08:55;6.25;;;3.80;;
13580;SDS011;6861;46.170;7.222;2023-07-29T04:11:23;5.35;;;4.00;;
13580;SDS011;6861;46.170;7.222;2023-07-29T04:13:52;5.38;;;4.10;;
13580;SDS011;6861;46.170;7.222;2023-07-29T04:16:22;5.90;;;4.05;;
13580;SDS011;6861;46.170;7.222;2023-07-29T04:18:50;5.47;;;3.90;;
13580;SDS011;6861;46.170;7.222;2023-07-29T04:21:18;6.40;;;4.38;;
13580;SDS011;6861;46.170;7.222;2023-07-29T04:23:46;5.78;;;3.83;;
13580;SDS011;6861;46.170;7.222;2023-07-29T04:26:14;4.55;;;3.47;;
13580;SDS011;6861;46.170;7.222;2023-07-29T04:28:43;6.97;;;4.00;;
13580;SDS011;6861;46.170;7.222;2023-07-29T04:31:11;4.57;;;3.65;;
13580;SDS011;6861;46.170;7.222;2023-07-29T04:33:40;4.30;;;3.67;;
13580;SDS011;6861;46.170;7.222;2023-07-29T04:36:08;5.18;;;3.60;;
13580;SDS011;6861;46.170;7.222;2023-07-29T04:38:37;6.50;;;3.92;;
13580;SDS011;6861;46.170;7.222;2023-07-29T04:41:05;5.57;;;3.75;;
13580;SDS011;6861;46.170;7.222;2023-07-29T04:43:35;5.82;;;3.67;;
13580;SDS011;6861;46.170;7.222;2023-07-29T04:46:06;5.38;;;4.20;;
13580;SDS011;6861;46.170;7.222;2023-07-29T04:48:35;6.10;;;4.32;;
13580;SDS011;6861;46.170;7.222;2023-07-29T04:51:04;8.38;;;4.80;;
13580;SDS011;6861;46.170;7.222;2023-07-29T04:53:32;6.68;;;4.00;;
13580;SDS011;6861;46.170;7.222;2023-07-29T04:56:02;6.95;;;4.85;;
13580;SDS011;6861;46.170;7.222;2023-07-29T04:58:31;5.63;;;4.38;;
13580;SDS011;6861;46.170;7.222;2023-07-29T05:01:01;8.00;;;4.32;;
13580;SDS011;6861;46.170;7.222;2023-07-29T05:03:30;5.13;;;4.05;;
13580;SDS011;6861;46.170;7.222;2023-07-29T05:05:58;7.35;;;4.13;;
13580;SDS011;6861;46.170;7.222;2023-07-29T05:08:28;4.88;;;4.18;;
13580;SDS011;6861;46.170;7.222;2023-07-29T05:10:56;6.13;;;4.20;;
13580;SDS011;6861;46.170;7.222;2023-07-29T05:13:24;5.93;;;4.32;;
13580;SDS011;6861;46.170;7.222;2023-07-29T05:15:53;5.60;;;4.40;;
13580;SDS011;6861;46.170;7.222;2023-07-29T05:18:21;4.95;;;3.90;;
13580;SDS011;6861;46.170;7.222;2023-07-29T05:20:49;8.15;;;4.30;;
13580;SDS011;6861;46.170;7.222;2023-07-29T05:23:18;5.88;;;4.20;;
13580;SDS011;6861;46.170;7.222;2023-07-29T05:25:47;4.90;;;4.18;;
13580;SDS011;6861;46.170;7.222;2023-07-29T05:28:15;6.10;;;4.20;;
13580;SDS011;6861;46.170;7.222;2023-07-29T05:30:44;5.45;;;4.40;;
13580;SDS011;6861;46.170;7.222;2023-07-29T05:33:12;7.60;;;4.70;;
13580;SDS011;6861;46.170;7.222;2023-07-29T05:35:40;5.55;;;4.30;;
13580;SDS011;6861;46.170;7.222;2023-07-29T05:38:08;5.35;;;4.20;;
13580;SDS011;6861;46.170;7.222;2023-07-29T05:40:37;5.43;;;4.38;;
13580;SDS011;6861;46.170;7.222;2023-07-29T05:43:06;8.10;;;4.53;;
13580;SDS011;6861;46.170;7.222;2023-07-29T05:45:34;7.07;;;4.05;;
13580;SDS011;6861;46.170;7.222;2023-07-29T05:48:03;7.00;;;4.40;;
13580;SDS011;6861;46.170;7.222;2023-07-29T05:50:31;6.65;;;4.50;;
13580;SDS011;6861;46.170;7.222;2023-07-29T05:53:00;5.57;;;4.13;;
13580;SDS011;6861;46.170;7.222;2023-07-29T05:55:28;6.40;;;4.43;;
13580;SDS011;6861;46.170;7.222;2023-07-29T05:57:56;5.32;;;4.57;;
13580;SDS011;6861;46.170;7.222;2023-07-29T06:00:26;5.82;;;4.43;;
13580;SDS011;6861;46.170;7.222;2023-07-29T06:02:54;7.28;;;4.45;;
13580;SDS011;6861;46.170;7.222;2023-07-29T06:05:22;5.22;;;4.03;;
13580;SDS011;6861;46.170;7.222;2023-07-29T06:07:50;10.32;;;4.80;;
13580;SDS011;6861;46.170;7.222;2023-07-29T06:10:19;5.18;;;4.35;;
13580;SDS011;6861;46.170;7.222;2023-07-29T06:12:48;8.07;;;4.72;;
13580;SDS011;6861;46.170;7.222;2023-07-29T06:15:16;4.82;;;4.20;;
13580;SDS011;6861;46.170;7.222;2023-07-29T06:17:49;7.60;;;4.82;;
13580;SDS011;6861;46.170;7.222;2023-07-29T06:20:22;7.18;;;4.50;;
13580;SDS011;6861;46.170;7.222;2023-07-29T06:22:50;5.40;;;4.35;;
13580;SDS011;6861;46.170;7.222;2023-07-29T06:25:18;6.78;;;4.57;;
13580;SDS011;6861;46.170;7.222;2023-07-29T06:27:47;6.72;;;4.55;;
13580;SDS011;6861;46.170;7.222;2023-07-29T06:30:15;5.15;;;4.20;;
13580;SDS011;6861;46.170;7.222;2023-07-29T06:32:44;5.90;;;4.70;;
13580;SDS011;6861;46.170;7.222;2023-07-29T06:35:13;5.60;;;4.70;;
13580;SDS011;6861;46.170;7.222;2023-07-29T06:37:42;7.13;;;5.03;;
13580;SDS011;6861;46.170;7.222;2023-07-29T06:40:10;7.90;;;4.55;;
13580;SDS011;6861;46.170;7.222;2023-07-29T06:42:39;6.93;;;4.55;;
13580;SDS011;6861;46.170;7.222;2023-07-29T06:45:07;5.88;;;4.15;;
13580;SDS011;6861;46.170;7.222;2023-07-29T06:47:36;5.85;;;4.57;;
13580;SDS011;6861;46.170;7.222;2023-07-29T06:50:05;7.90;;;4.57;;
13580;SDS011;6861;46.170;7.222;2023-07-29T06:52:35;6.50;;;4.63;;
13580;SDS011;6861;46.170;7.222;2023-07-29T06:55:04;5.30;;;4.20;;
13580;SDS011;6861;46.170;7.222;2023-07-29T06:57:33;5.93;;;4.50;;
13580;SDS011;6861;46.170;7.222;2023-07-29T07:00:01;6.03;;;4.40;;
13580;SDS011;6861;46.170;7.222;2023-07-29T07:02:30;5.60;;;4.35;;
13580;SDS011;6861;46.170;7.222;2023-07-29T07:04:59;6.32;;;4.72;;
13580;SDS011;6861;46.170;7.222;2023-07-29T07:07:27;5.47;;;4.63;;
13580;SDS011;6861;46.170;7.222;2023-07-29T07:09:56;7.30;;;4.45;;
13580;SDS011;6861;46.170;7.222;2023-07-29T07:12:27;7.47;;;4.50;;
13580;SDS011;6861;46.170;7.222;2023-07-29T07:14:55;6.25;;;4.18;;
13580;SDS011;6861;46.170;7.222;2023-07-29T07:17:23;6.05;;;4.03;;
13580;SDS011;6861;46.170;7.222;2023-07-29T07:19:51;6.40;;;4.32;;
13580;SDS011;6861;46.170;7.222;2023-07-29T07:22:19;5.55;;;4.25;;
13580;SDS011;6861;46.170;7.222;2023-07-29T07:24:48;5.30;;;4.07;;
13580;SDS011;6861;46.170;7.222;2023-07-29T07:27:17;7.28;;;4.32;;
13580;SDS011;6861;46.170;7.222;2023-07-29T07:29:46;6.13;;;4.30;;
13580;SDS011;6861;46.170;7.222;2023-07-29T07:32:14;10.75;;;4.68;;
13580;SDS011;6861;46.170;7.222;2023-07-29T07:34:42;5.50;;;4.30;;
13580;SDS011;6861;46.170;7.222;2023-07-29T07:37:10;8.10;;;4.57;;
13580;SDS011;6861;46.170;7.222;2023-07-29T07:39:38;5.43;;;3.70;;
13580;SDS011;6861;46.170;7.222;2023-07-29T07:42:06;6.78;;;4.38;;
13580;SDS011;6861;46.170;7.222;2023-07-29T07:44:36;6.75;;;4.85;;
13580;SDS011;6861;46.170;7.222;2023-07-29T07:47:04;7.15;;;4.32;;
13580;SDS011;6861;46.170;7.222;2023-07-29T07:49:33;5.88;;;4.05;;
13580;SDS011;6861;46.170;7.222;2023-07-29T07:52:01;6.80;;;4.00;;
13580;SDS011;6861;46.170;7.222;2023-07-29T07:54:29;6.18;;;4.18;;
13580;SDS011;6861;46.170;7.222;2023-07-29T07:56:57;4.93;;;3.88;;
13580;SDS011;6861;46.170;7.222;2023-07-29T07:59:25;5.00;;;3.80;;
13580;SDS011;6861;46.170;7.222;2023-07-29T08:01:55;4.78;;;4.20;;
13580;SDS011;6861;46.170;7.222;2023-07-29T08:04:23;6.05;;;4.07;;
13580;SDS011;6861;46.170;7.222;2023-07-29T08:06:52;5.63;;;3.90;;
13580;SDS011;6861;46.170;7.222;2023-07-29T08:09:20;5.70;;;3.50;;
13580;SDS011;6861;46.170;7.222;2023-07-29T08:11:48;5.63;;;4.20;;
13580;SDS011;6861;46.170;7.222;2023-07-29T08:14:16;6.15;;;4.45;;
13580;SDS011;6861;46.170;7.222;2023-07-29T08:16:44;6.97;;;4.25;;
13580;SDS011;6861;46.170;7.222;2023-07-29T08:19:14;4.20;;;3.70;;
13580;SDS011;6861;46.170;7.222;2023-07-29T08:21:42;5.20;;;3.90;;
13580;SDS011;6861;46.170;7.222;2023-07-29T08:24:10;7.38;;;4.63;;
13580;SDS011;6861;46.170;7.222;2023-07-29T08:26:39;4.43;;;3.80;;
13580;SDS011;6861;46.170;7.222;2023-07-29T08:29:07;4.72;;;3.97;;
13580;SDS011;6861;46.170;7.222;2023-07-29T08:31:35;6.50;;;4.30;;
13580;SDS011;6861;46.170;7.222;2023-07-29T08:34:03;7.40;;;4.28;;
13580;SDS011;6861;46.170;7.222;2023-07-29T08:36:33;6.43;;;4.32;;
13580;SDS011;6861;46.170;7.222;2023-07-29T08:39:01;6.75;;;3.83;;
13580;SDS011;6861;46.170;7.222;2023-07-29T08:41:31;5.28;;;4.40;;
13580;SDS011;6861;46.170;7.222;2023-07-29T08:44:06;4.80;;;3.53;;
13580;SDS011;6861;46.170;7.222;2023-07-29T08:46:38;4.72;;;3.92;;
13580;SDS011;6861;46.170;7.222;2023-07-29T08:49:07;5.93;;;4.22;;
13580;SDS011;6861;46.170;7.222;2023-07-29T08:51:38;5.10;;;3.92;;
13580;SDS011;6861;46.170;7.222;2023-07-29T08:54:08;4.90;;;4.20;;
13580;SDS011;6861;46.170;7.222;2023-07-29T08:56:37;5.35;;;4.10;;
13580;SDS011;6861;46.170;7.222;2023-07-29T08:59:06;7.25;;;4.30;;
13580;SDS011;6861;46.170;7.222;2023-07-29T09:01:35;6.40;;;4.47;;
13580;SDS011;6861;46.170;7.222;2023-07-29T09:04:04;5.60;;;4.32;;
13580;SDS011;6861;46.170;7.222;2023-07-29T09:06:32;6.57;;;4.10;;
13580;SDS011;6861;46.170;7.222;2023-07-29T09:09:04;5.82;;;4.35;;
13580;SDS011;6861;46.170;7.222;2023-07-29T09:11:35;5.55;;;4.32;;
13580;SDS011;6861;46.170;7.222;2023-07-29T09:14:03;7.13;;;4.45;;
13580;SDS011;6861;46.170;7.222;2023-07-29T09:16:31;5.20;;;4.03;;
13580;SDS011;6861;46.170;7.222;2023-07-29T09:19:01;8.60;;;4.70;;
13580;SDS011;6861;46.170;7.222;2023-07-29T09:21:31;4.97;;;3.67;;
13580;SDS011;6861;46.170;7.222;2023-07-29T09:24:02;5.03;;;4.13;;
13580;SDS011;6861;46.170;7.222;2023-07-29T09:26:32;5.22;;;3.92;;
13580;SDS011;6861;46.170;7.222;2023-07-29T09:29:02;5.35;;;4.45;;
13580;SDS011;6861;46.170;7.222;2023-07-29T09:31:30;4.60;;;3.90;;
13580;SDS011;6861;46.170;7.222;2023-07-29T09:33:59;6.70;;;3.83;;
13580;SDS011;6861;46.170;7.222;2023-07-29T09:36:30;5.88;;;4.03;;
13580;SDS011;6861;46.170;7.222;2023-07-29T09:38:59;5.50;;;4.15;;
13580;SDS011;6861;46.170;7.222;2023-07-29T09:41:28;5.93;;;4.13;;
13580;SDS011;6861;46.170;7.222;2023-07-29T09:43:59;6.35;;;4.03;;
13580;SDS011;6861;46.170;7.222;2023-07-29T09:46:31;5.68;;;4.20;;
13580;SDS011;6861;46.170;7.222;2023-07-29T09:49:02;5.70;;;3.90;;
13580;SDS011;6861;46.170;7.222;2023-07-29T09:51:32;8.82;;;4.15;;
13580;SDS011;6861;46.170;7.222;2023-07-29T09:54:05;6.00;;;4.13;;
13580;SDS011;6861;46.170;7.222;2023-07-29T09:56:33;5.80;;;4.00;;
13580;SDS011;6861;46.170;7.222;2023-07-29T09:59:08;7.32;;;4.40;;
13580;SDS011;6861;46.170;7.222;2023-07-29T10:01:37;6.57;;;4.30;;
13580;SDS011;6861;46.170;7.222;2023-07-29T10:04:06;4.78;;;3.95;;
13580;SDS011;6861;46.170;7.222;2023-07-29T10:06:38;5.70;;;4.22;;
13580;SDS011;6861;46.170;7.222;2023-07-29T10:09:08;6.30;;;4.15;;
13580;SDS011;6861;46.170;7.222;2023-07-29T10:11:39;7.32;;;4.57;;
13580;SDS011;6861;46.170;7.222;2023-07-29T10:14:10;5.57;;;4.32;;
13580;SDS011;6861;46.170;7.222;2023-07-29T10:16:39;5.03;;;4.20;;
13580;SDS011;6861;46.170;7.222;2023-07-29T10:19:08;4.85;;;4.07;;
13580;SDS011;6861;46.170;7.222;2023-07-29T10:21:38;7.55;;;5.20;;
13580;SDS011;6861;46.170;7.222;2023-07-29T10:24:09;5.72;;;4.30;;
13580;SDS011;6861;46.170;7.222;2023-07-29T10:26:43;6.75;;;4.65;;
13580;SDS011;6861;46.170;7.222;2023-07-29T10:29:15;7.22;;;5.15;;
13580;SDS011;6861;46.170;7.222;2023-07-29T10:31:47;6.40;;;4.53;;
13580;SDS011;6861;46.170;7.222;2023-07-29T10:34:20;7.07;;;4.45;;
13580;SDS011;6861;46.170;7.222;2023-07-29T10:36:49;6.18;;;3.85;;
13580;SDS011;6861;46.170;7.222;2023-07-29T10:39:18;4.82;;;3.80;;
13580;SDS011;6861;46.170;7.222;2023-07-29T10:41:56;6.28;;;4.32;;
13580;SDS011;6861;46.170;7.222;2023-07-29T10:47:19;6.68;;;4.32;;
13580;SDS011;6861;46.170;7.222;2023-07-29T10:49:49;8.70;;;4.60;;
13580;SDS011;6861;46.170;7.222;2023-07-29T10:52:30;5.78;;;4.35;;
13580;SDS011;6861;46.170;7.222;2023-07-29T10:55:06;5.30;;;4.10;;
13580;SDS011;6861;46.170;7.222;2023-07-29T10:57:51;6.13;;;4.05;;
13580;SDS011;6861;46.170;7.222;2023-07-29T11:00:21;5.35;;;4.85;;
13580;SDS011;6861;46.170;7.222;2023-07-29T11:02:56;6.40;;;4.57;;
13580;SDS011;6861;46.170;7.222;2023-07-29T11:05:41;6.30;;;4.90;;
13580;SDS011;6861;46.170;7.222;2023-07-29T11:08:17;5.45;;;4.28;;
13580;SDS011;6861;46.170;7.222;2023-07-29T11:10:59;7.50;;;5.10;;
13580;SDS011;6861;46.170;7.222;2023-07-29T11:13:30;8.43;;;4.88;;
13580;SDS011;6861;46.170;7.222;2023-07-29T11:16:01;5.22;;;4.43;;
13580;SDS011;6861;46.170;7.222;2023-07-29T11:18:30;6.47;;;5.20;;
13580;SDS011;6861;46.170;7.222;2023-07-29T11:21:00;6.72;;;5.03;;
13580;SDS011;6861;46.170;7.222;2023-07-29T11:23:29;5.68;;;4.72;;
13580;SDS011;6861;46.170;7.222;2023-07-29T11:25:59;7.03;;;4.88;;
13580;SDS011;6861;46.170;7.222;2023-07-29T11:28:28;5.97;;;5.05;;
13580;SDS011;6861;46.170;7.222;2023-07-29T11:30:57;6.90;;;4.90;;
13580;SDS011;6861;46.170;7.222;2023-07-29T11:33:27;7.63;;;4.90;;
13580;SDS011;6861;46.170;7.222;2023-07-29T11:35:55;6.78;;;4.85;;
13580;SDS011;6861;46.170;7.222;2023-07-29T11:38:23;7.70;;;4.97;;
13580;SDS011;6861;46.170;7.222;2023-07-29T11:40:53;5.68;;;4.22;;
13580;SDS011;6861;46.170;7.222;2023-07-29T11:43:23;7.15;;;5.10;;
13580;SDS011;6861;46.170;7.222;2023-07-29T11:45:51;6.57;;;4.60;;
13580;SDS011;6861;46.170;7.222;2023-07-29T11:48:27;6.75;;;5.13;;
13580;SDS011;6861;46.170;7.222;2023-07-29T11:50:56;10.23;;;5.28;;
13580;SDS011;6861;46.170;7.222;2023-07-29T11:53:25;8.82;;;5.00;;
13580;SDS011;6861;46.170;7.222;2023-07-29T11:55:55;7.57;;;5.32;;
13580;SDS011;6861;46.170;7.222;2023-07-29T11:58:23;5.60;;;4.95;;
13580;SDS011;6861;46.170;7.222;2023-07-29T12:00:52;7.38;;;5.38;;
13580;SDS011;6861;46.170;7.222;2023-07-29T12:03:20;6.07;;;4.97;;
13580;SDS011;6861;46.170;7.222;2023-07-29T12:05:51;8.55;;;5.38;;
13580;SDS011;6861;46.170;7.222;2023-07-29T12:08:20;6.50;;;4.70;;
13580;SDS011;6861;46.170;7.222;2023-07-29T12:10:49;6.25;;;5.10;;
13580;SDS011;6861;46.170;7.222;2023-07-29T12:13:18;5.55;;;4.80;;
13580;SDS011;6861;46.170;7.222;2023-07-29T12:15:46;6.75;;;4.70;;
13580;SDS011;6861;46.170;7.222;2023-07-29T12:18:14;7.97;;;4.65;;
13580;SDS011;6861;46.170;7.222;2023-07-29T12:20:42;6.97;;;4.47;;
13580;SDS011;6861;46.170;7.222;2023-07-29T12:23:12;4.93;;;4.43;;
13580;SDS011;6861;46.170;7.222;2023-07-29T12:25:40;7.07;;;4.95;;
13580;SDS011;6861;46.170;7.222;2023-07-29T12:28:09;5.28;;;4.50;;
13580;SDS011;6861;46.170;7.222;2023-07-29T12:30:41;7.35;;;4.80;;
13580;SDS011;6861;46.170;7.222;2023-07-29T12:33:09;6.53;;;4.47;;
13580;SDS011;6861;46.170;7.222;2023-07-29T12:35:38;6.78;;;5.05;;
13580;SDS011;6861;46.170;7.222;2023-07-29T12:38:06;6.82;;;4.97;;
13580;SDS011;6861;46.170;7.222;2023-07-29T12:40:38;6.57;;;4.90;;
13580;SDS011;6861;46.170;7.222;2023-07-29T12:43:08;8.85;;;4.97;;
13580;SDS011;6861;46.170;7.222;2023-07-29T12:45:37;5.53;;;4.50;;
13580;SDS011;6861;46.170;7.222;2023-07-29T12:48:06;6.88;;;4.38;;
13580;SDS011;6861;46.170;7.222;2023-07-29T12:50:35;5.38;;;4.50;;
13580;SDS011;6861;46.170;7.222;2023-07-29T12:53:04;4.95;;;4.28;;
13580;SDS011;6861;46.170;7.222;2023-07-29T12:55:32;5.60;;;4.30;;
13580;SDS011;6861;46.170;7.222;2023-07-29T12:58:03;5.38;;;4.68;;
13580;SDS011;6861;46.170;7.222;2023-07-29T13:00:32;6.60;;;4.68;;
13580;SDS011;6861;46.170;7.222;2023-07-29T13:03:00;5.53;;;4.45;;
13580;SDS011;6861;46.170;7.222;2023-07-29T13:05:32;5.82;;;4.45;;
13580;SDS011;6861;46.170;7.222;2023-07-29T13:08:01;5.68;;;4.40;;
13580;SDS011;6861;46.170;7.222;2023-07-29T13:10:29;7.15;;;4.10;;
13580;SDS011;6861;46.170;7.222;2023-07-29T13:12:57;6.72;;;4.25;;
13580;SDS011;6861;46.170;7.222;2023-07-29T13:15:27;5.88;;;4.13;;
13580;SDS011;6861;46.170;7.222;2023-07-29T13:17:55;6.63;;;4.70;;
13580;SDS011;6861;46.170;7.222;2023-07-29T13:20:24;5.28;;;4.70;;
13580;SDS011;6861;46.170;7.222;2023-07-29T13:22:53;6.10;;;4.75;;
13580;SDS011;6861;46.170;7.222;2023-07-29T13:25:21;5.57;;;4.70;;
13580;SDS011;6861;46.170;7.222;2023-07-29T13:27:50;6.57;;;4.75;;
13580;SDS011;6861;46.170;7.222;2023-07-29T13:30:18;6.32;;;5.28;;
13580;SDS011;6861;46.170;7.222;2023-07-29T13:32:48;6.13;;;4.32;;
13580;SDS011;6861;46.170;7.222;2023-07-29T13:35:16;7.65;;;4.82;;
13580;SDS011;6861;46.170;7.222;2023-07-29T13:37:45;5.50;;;4.70;;
13580;SDS011;6861;46.170;7.222;2023-07-29T13:40:13;6.47;;;4.60;;
13580;SDS011;6861;46.170;7.222;2023-07-29T13:42:42;6.10;;;4.63;;
13580;SDS011;6861;46.170;7.222;2023-07-29T13:45:10;5.25;;;4.43;;
13580;SDS011;6861;46.170;7.222;2023-07-29T13:47:38;7.35;;;4.80;;
13580;SDS011;6861;46.170;7.222;2023-07-29T13:50:08;7.10;;;5.22;;
13580;SDS011;6861;46.170;7.222;2023-07-29T13:52:37;7.80;;;4.93;;
13580;SDS011;6861;46.170;7.222;2023-07-29T13:55:05;7.32;;;4.80;;
13580;SDS011;6861;46.170;7.222;2023-07-29T13:57:37;5.95;;;4.45;;
13580;SDS011;6861;46.170;7.222;2023-07-29T14:00:06;6.18;;;4.65;;
13580;SDS011;6861;46.170;7.222;2023-07-29T14:02:35;7.20;;;4.85;;
13580;SDS011;6861;46.170;7.222;2023-07-29T14:05:04;7.40;;;4.75;;
13580;SDS011;6861;46.170;7.222;2023-07-29T14:07:35;6.03;;;4.95;;
13580;SDS011;6861;46.170;7.222;2023-07-29T14:10:03;5.78;;;4.70;;
13580;SDS011;6861;46.170;7.222;2023-07-29T14:12:32;6.50;;;5.43;;
13580;SDS011;6861;46.170;7.222;2023-07-29T14:15:02;6.55;;;4.88;;
13580;SDS011;6861;46.170;7.222;2023-07-29T14:17:31;7.57;;;4.90;;
13580;SDS011;6861;46.170;7.222;2023-07-29T14:20:00;8.45;;;5.75;;
13580;SDS011;6861;46.170;7.222;2023-07-29T14:22:31;11.07;;;5.60;;
13580;SDS011;6861;46.170;7.222;2023-07-29T14:25:02;7.82;;;5.22;;
13580;SDS011;6861;46.170;7.222;2023-07-29T14:27:30;7.30;;;5.32;;
13580;SDS011;6861;46.170;7.222;2023-07-29T14:29:59;8.73;;;5.82;;
13580;SDS011;6861;46.170;7.222;2023-07-29T14:32:28;7.60;;;5.03;;
13580;SDS011;6861;46.170;7.222;2023-07-29T14:35:00;13.13;;;11.82;;
13580;SDS011;6861;46.170;7.222;2023-07-29T14:37:30;7.25;;;5.90;;
13580;SDS011;6861;46.170;7.222;2023-07-29T14:40:01;7.53;;;5.10;;
13580;SDS011;6861;46.170;7.222;2023-07-29T14:42:30;6.20;;;5.55;;
13580;SDS011;6861;46.170;7.222;2023-07-29T14:45:01;7.68;;;5.47;;
13580;SDS011;6861;46.170;7.222;2023-07-29T14:47:30;7.70;;;5.60;;
13580;SDS011;6861;46.170;7.222;2023-07-29T14:50:01;6.57;;;5.43;;
13580;SDS011;6861;46.170;7.222;2023-07-29T14:52:30;6.68;;;5.32;;
13580;SDS011;6861;46.170;7.222;2023-07-29T14:54:59;6.07;;;4.72;;
13580;SDS011;6861;46.170;7.222;2023-07-29T14:57:29;7.78;;;5.05;;
13580;SDS011;6861;46.170;7.222;2023-07-29T14:59:57;5.50;;;4.55;;
13580;SDS011;6861;46.170;7.222;2023-07-29T15:02:26;6.68;;;4.85;;
13580;SDS011;6861;46.170;7.222;2023-07-29T15:04:54;5.78;;;4.18;;
13580;SDS011;6861;46.170;7.222;2023-07-29T15:07:23;6.70;;;5.00;;
13580;SDS011;6861;46.170;7.222;2023-07-29T15:09:51;8.23;;;5.13;;
13580;SDS011;6861;46.170;7.222;2023-07-29T15:12:19;6.53;;;5.00;;
13580;SDS011;6861;46.170;7.222;2023-07-29T15:14:49;6.90;;;5.28;;
13580;SDS011;6861;46.170;7.222;2023-07-29T15:17:18;7.47;;;4.75;;